sensor_id;sensor_type;location;lat;lon;timestamp;pressure;altitude;pressure_sealevel;temperature;humidity
42169;BME280;27838;43.858;25.974;2022-09-17T00:02:14;99978.19;;;26.09;43.67
42169;BME280;27838;43.858;25.974;2022-09-17T00:04:41;99971.88;;;26.10;43.59
42169;BME280;27838;43.858;25.974;2022-09-17T00:07:07;99973.47;;;26.13;43.58
42169;BME280;27838;43.858;25.974;2022-09-17T00:09:34;99969.09;;;26.12;43.47
42169;BME280;27838;43.858;25.974;2022-09-17T00:12:00;99968.13;;;26.13;43.56
42169;BME280;27838;43.858;25.974;2022-09-17T00:14:27;99969.19;;;26.10;43.47
42169;BME280;27838;43.858;25.974;2022-09-17T00:16:54;99974.81;;;26.18;43.32
42169;BME280;27838;43.858;25.974;2022-09-17T00:19:21;99982.72;;;26.20;43.18
42169;BME280;27838;43.858;25.974;2022-09-17T00:21:49;99989.88;;;26.19;43.39
42169;BME280;27838;43.858;25.974;2022-09-17T00:24:17;99976.53;;;26.19;43.12
42169;BME280;27838;43.858;25.974;2022-09-17T00:26:45;99979.09;;;26.21;43.12
42169;BME280;27838;43.858;25.974;2022-09-17T00:29:12;99981.00;;;26.19;43.24
42169;BME280;27838;43.858;25.974;2022-09-17T00:31:39;99971.03;;;26.10;43.07
42169;BME280;27838;43.858;25.974;2022-09-17T00:34:06;99965.41;;;26.02;43.08
42169;BME280;27838;43.858;25.974;2022-09-17T00:36:34;99965.06;;;25.95;43.20
42169;BME280;27838;43.858;25.974;2022-09-17T00:39:03;99947.91;;;25.86;43.44
42169;BME280;27838;43.858;25.974;2022-09-17T00:41:31;99947.41;;;25.81;43.33
42169;BME280;27838;43.858;25.974;2022-09-17T00:44:00;99949.69;;;25.86;43.33
42169;BME280;27838;43.858;25.974;2022-09-17T00:49:23;99948.69;;;25.75;43.52
42169;BME280;27838;43.858;25.974;2022-09-17T00:52:05;99951.00;;;25.69;43.38
42169;BME280;27838;43.858;25.974;2022-09-17T00:54:35;99949.91;;;25.71;43.40
42169;BME280;27838;43.858;25.974;2022-09-17T00:57:03;99947.84;;;25.75;43.32
42169;BME280;27838;43.858;25.974;2022-09-17T00:59:30;99944.84;;;25.79;43.23
42169;BME280;27838;43.858;25.974;2022-09-17T01:01:56;99944.47;;;25.84;43.13
42169;BME280;27838;43.858;25.974;2022-09-17T01:04:25;99939.75;;;25.88;42.92
42169;BME280;27838;43.858;25.974;2022-09-17T01:07:29;99941.22;;;25.92;42.82
42169;BME280;27838;43.858;25.974;2022-09-17T01:15:35;99947.13;;;26.08;42.24
42169;BME280;27838;43.858;25.974;2022-09-17T01:18:24;99940.94;;;26.08;42.42
42169;BME280;27838;43.858;25.974;2022-09-17T01:31:58;99934.03;;;26.16;42.50
42169;BME280;27838;43.858;25.974;2022-09-17T01:34:44;99934.38;;;26.12;42.51
42169;BME280;27838;43.858;25.974;2022-09-17T01:37:33;99930.88;;;26.11;42.85
42169;BME280;27838;43.858;25.974;2022-09-17T01:40:18;99927.22;;;26.12;42.97
42169;BME280;27838;43.858;25.974;2022-09-17T01:43:04;99923.81;;;26.10;42.91
42169;BME280;27838;43.858;25.974;2022-09-17T01:45:48;99931.94;;;26.09;43.32
42169;BME280;27838;43.858;25.974;2022-09-17T01:48:18;99930.03;;;26.11;43.30
42169;BME280;27838;43.858;25.974;2022-09-17T01:50:50;99924.31;;;26.15;43.13
42169;BME280;27838;43.858;25.974;2022-09-17T01:53:23;99919.56;;;26.19;43.21
42169;BME280;27838;43.858;25.974;2022-09-17T01:55:53;99908.53;;;26.24;43.36
42169;BME280;27838;43.858;25.974;2022-09-17T01:58:30;99910.97;;;26.27;43.38
42169;BME280;27838;43.858;25.974;2022-09-17T02:01:05;99901.84;;;26.29;43.34
42169;BME280;27838;43.858;25.974;2022-09-17T02:06:24;99910.47;;;26.33;43.10
42169;BME280;27838;43.858;25.974;2022-09-17T02:08:58;99905.13;;;26.33;43.47
42169;BME280;27838;43.858;25.974;2022-09-17T02:11:27;99901.63;;;26.21;43.40
42169;BME280;27838;43.858;25.974;2022-09-17T02:14:07;99897.84;;;26.12;44.22
42169;BME280;27838;43.858;25.974;2022-09-17T02:16:40;99908.50;;;26.01;44.24
42169;BME280;27838;43.858;25.974;2022-09-17T02:19:31;99915.88;;;25.86;44.82
42169;BME280;27838;43.858;25.974;2022-09-17T02:22:19;99910.38;;;25.76;45.18
42169;BME280;27838;43.858;25.974;2022-09-17T02:25:07;99910.00;;;25.70;45.52
42169;BME280;27838;43.858;25.974;2022-09-17T02:30:18;99903.53;;;25.61;45.78
42169;BME280;27838;43.858;25.974;2022-09-17T02:32:45;99909.84;;;25.60;45.99
42169;BME280;27838;43.858;25.974;2022-09-17T02:35:12;99894.06;;;25.57;46.14
42169;BME280;27838;43.858;25.974;2022-09-17T02:37:43;99898.78;;;25.53;46.54
42169;BME280;27838;43.858;25.974;2022-09-17T02:40:12;99896.56;;;25.47;46.71
42169;BME280;27838;43.858;25.974;2022-09-17T02:43:09;99892.06;;;25.36;47.32
42169;BME280;27838;43.858;25.974;2022-09-17T02:45:51;99882.94;;;25.39;47.27
42169;BME280;27838;43.858;25.974;2022-09-17T02:48:27;99892.56;;;25.41;47.72
42169;BME280;27838;43.858;25.974;2022-09-17T02:54:07;99888.66;;;25.34;49.20
42169;BME280;27838;43.858;25.974;2022-09-17T02:59:20;99886.72;;;25.36;49.71
42169;BME280;27838;43.858;25.974;2022-09-17T03:04:37;99857.34;;;25.25;50.00
42169;BME280;27838;43.858;25.974;2022-09-17T03:07:09;99862.59;;;25.14;50.42
42169;BME280;27838;43.858;25.974;2022-09-17T03:09:37;99867.91;;;25.14;50.60
42169;BME280;27838;43.858;25.974;2022-09-17T03:12:03;99860.88;;;25.13;50.77
42169;BME280;27838;43.858;25.974;2022-09-17T03:14:30;99860.41;;;25.08;51.19
42169;BME280;27838;43.858;25.974;2022-09-17T03:16:57;99863.28;;;25.04;51.43
42169;BME280;27838;43.858;25.974;2022-09-17T03:19:23;99850.19;;;25.01;51.64
42169;BME280;27838;43.858;25.974;2022-09-17T03:21:52;99843.38;;;24.97;51.86
42169;BME280;27838;43.858;25.974;2022-09-17T03:24:19;99843.59;;;24.94;52.03
42169;BME280;27838;43.858;25.974;2022-09-17T03:26:45;99834.25;;;24.88;52.09
42169;BME280;27838;43.858;25.974;2022-09-17T03:29:13;99835.81;;;24.91;52.22
42169;BME280;27838;43.858;25.974;2022-09-17T03:31:40;99837.28;;;24.95;51.91
42169;BME280;27838;43.858;25.974;2022-09-17T03:34:07;99830.16;;;24.96;51.93
42169;BME280;27838;43.858;25.974;2022-09-17T03:36:33;99823.97;;;24.95;52.36
42169;BME280;27838;43.858;25.974;2022-09-17T03:39:00;99812.81;;;24.90;52.11
42169;BME280;27838;43.858;25.974;2022-09-17T03:41:27;99809.75;;;24.83;52.44
42169;BME280;27838;43.858;25.974;2022-09-17T03:43:53;99810.81;;;24.81;52.68
42169;BME280;27838;43.858;25.974;2022-09-17T03:46:20;99786.78;;;24.69;53.08
42169;BME280;27838;43.858;25.974;2022-09-17T03:48:47;99785.53;;;24.62;53.21
42169;BME280;27838;43.858;25.974;2022-09-17T03:51:13;99792.78;;;24.60;53.43
42169;BME280;27838;43.858;25.974;2022-09-17T03:53:40;99802.59;;;24.60;53.47
42169;BME280;27838;43.858;25.974;2022-09-17T03:56:06;99797.25;;;24.60;53.37
42169;BME280;27838;43.858;25.974;2022-09-17T03:58:33;99800.03;;;24.58;53.44
42169;BME280;27838;43.858;25.974;2022-09-17T04:01:00;99799.41;;;24.55;53.71
42169;BME280;27838;43.858;25.974;2022-09-17T04:03:28;99806.34;;;24.57;53.42
42169;BME280;27838;43.858;25.974;2022-09-17T04:05:55;99799.94;;;24.60;53.48
42169;BME280;27838;43.858;25.974;2022-09-17T04:08:21;99783.22;;;24.58;53.34
42169;BME280;27838;43.858;25.974;2022-09-17T04:10:48;99782.47;;;24.56;53.46
42169;BME280;27838;43.858;25.974;2022-09-17T04:13:16;99778.84;;;24.57;53.46
42169;BME280;27838;43.858;25.974;2022-09-17T04:15:44;99765.75;;;24.54;53.63
42169;BME280;27838;43.858;25.974;2022-09-17T04:18:11;99767.66;;;24.52;53.56
42169;BME280;27838;43.858;25.974;2022-09-17T04:20:38;99771.50;;;24.47;53.89
42169;BME280;27838;43.858;25.974;2022-09-17T04:23:05;99784.91;;;24.46;53.76
42169;BME280;27838;43.858;25.974;2022-09-17T04:25:32;99790.25;;;24.46;53.61
42169;BME280;27838;43.858;25.974;2022-09-17T04:27:59;99793.88;;;24.45;53.25
42169;BME280;27838;43.858;25.974;2022-09-17T04:30:25;99796.31;;;24.48;52.47
42169;BME280;27838;43.858;25.974;2022-09-17T04:32:52;99788.31;;;24.48;52.55
42169;BME280;27838;43.858;25.974;2022-09-17T04:35:19;99788.31;;;24.48;52.63
42169;BME280;27838;43.858;25.974;2022-09-17T04:37:58;99778.75;;;24.45;52.66
42169;BME280;27838;43.858;25.974;2022-09-17T04:40:25;99783.22;;;24.45;52.84
42169;BME280;27838;43.858;25.974;2022-09-17T04:42:56;99783.44;;;24.42;52.81
42169;BME280;27838;43.858;25.974;2022-09-17T04:45:23;99783.22;;;24.45;
42169;BME280;27838;43.858;25.974;2022-09-17T04:47:51;99796.19;;;24.49;51.80
42169;BME280;27838;43.858;25.974;2022-09-17T04:50:18;99787.25;;;24.50;51.54
42169;BME280;27838;43.858;25.974;2022-09-17T04:52:45;99778.72;;;24.58;51.20
42169;BME280;27838;43.858;25.974;2022-09-17T04:55:13;99766.13;;;24.60;50.93
42169;BME280;27838;43.858;25.974;2022-09-17T04:57:45;99765.66;;;24.55;50.90
42169;BME280;27838;43.858;25.974;2022-09-17T05:00:12;99782.38;;;24.57;51.12
42169;BME280;27838;43.858;25.974;2022-09-17T05:02:39;99783.44;;;24.55;51.19
42169;BME280;27838;43.858;25.974;2022-09-17T05:05:06;99787.81;;;24.56;50.88
42169;BME280;27838;43.858;25.974;2022-09-17T05:07:33;99780.53;;;24.58;50.96
42169;BME280;27838;43.858;25.974;2022-09-17T05:09:59;99775.09;;;24.59;50.62
42169;BME280;27838;43.858;25.974;2022-09-17T05:12:26;99774.28;;;24.59;50.76
42169;BME280;27838;43.858;25.974;2022-09-17T05:14:52;99765.00;;;24.52;51.46
42169;BME280;27838;43.858;25.974;2022-09-17T05:17:19;99768.09;;;24.45;51.52
42169;BME280;27838;43.858;25.974;2022-09-17T05:19:45;99788.22;;;24.49;51.39
42169;BME280;27838;43.858;25.974;2022-09-17T05:22:12;99786.53;;;24.48;51.36
42169;BME280;27838;43.858;25.974;2022-09-17T05:24:38;99796.09;;;24.51;51.28
42169;BME280;27838;43.858;25.974;2022-09-17T05:27:06;99792.28;;;24.55;51.45
42169;BME280;27838;43.858;25.974;2022-09-17T05:29:32;99778.00;;;24.56;51.97
42169;BME280;27838;43.858;25.974;2022-09-17T05:31:59;99776.78;;;24.60;52.49
42169;BME280;27838;43.858;25.974;2022-09-17T05:34:25;99782.13;;;24.60;53.01
42169;BME280;27838;43.858;25.974;2022-09-17T05:36:52;99780.53;;;24.58;53.13
42169;BME280;27838;43.858;25.974;2022-09-17T05:39:18;99787.44;;;24.60;53.12
42169;BME280;27838;43.858;25.974;2022-09-17T05:41:47;99784.06;;;24.58;53.35
42169;BME280;27838;43.858;25.974;2022-09-17T05:44:13;99778.72;;;24.58;53.60
42169;BME280;27838;43.858;25.974;2022-09-17T05:46:40;99776.06;;;24.58;53.66
42169;BME280;27838;43.858;25.974;2022-09-17T05:49:06;99773.19;;;24.61;53.59
42169;BME280;27838;43.858;25.974;2022-09-17T05:51:33;99769.56;;;24.62;53.37
42169;BME280;27838;43.858;25.974;2022-09-17T05:53:59;99772.22;;;24.62;53.56
42169;BME280;27838;43.858;25.974;2022-09-17T05:56:26;99770.50;;;24.61;53.34
42169;BME280;27838;43.858;25.974;2022-09-17T05:58:55;99765.28;;;24.60;53.52
42169;BME280;27838;43.858;25.974;2022-09-17T06:01:22;99773.91;;;24.63;53.35
42169;BME280;27838;43.858;25.974;2022-09-17T06:03:49;99775.41;;;24.67;53.20
42169;BME280;27838;43.858;25.974;2022-09-17T06:06:16;99768.88;;;24.72;53.47
42169;BME280;27838;43.858;25.974;2022-09-17T06:08:42;99763.31;;;24.75;52.85
42169;BME280;27838;43.858;25.974;2022-09-17T06:11:09;99763.06;;;24.78;52.76
42169;BME280;27838;43.858;25.974;2022-09-17T06:13:35;99779.81;;;24.80;52.77
42169;BME280;27838;43.858;25.974;2022-09-17T06:16:03;99782.22;;;24.83;52.73
42169;BME280;27838;43.858;25.974;2022-09-17T06:18:30;99767.97;;;24.84;52.09
42169;BME280;27838;43.858;25.974;2022-09-17T06:21:00;99767.00;;;24.85;51.63
42169;BME280;27838;43.858;25.974;2022-09-17T06:23:29;99757.41;;;24.82;51.60
42169;BME280;27838;43.858;25.974;2022-09-17T06:26:00;99753.41;;;24.88;51.66
42169;BME280;27838;43.858;25.974;2022-09-17T06:28:28;99748.09;;;24.88;51.76
42169;BME280;27838;43.858;25.974;2022-09-17T06:30:59;99748.09;;;24.88;51.45
42169;BME280;27838;43.858;25.974;2022-09-17T06:33:26;99740.59;;;24.93;51.04
42169;BME280;27838;43.858;25.974;2022-09-17T06:35:57;99741.69;;;24.91;51.32
42169;BME280;27838;43.858;25.974;2022-09-17T06:38:26;99743.03;;;24.96;51.38
42169;BME280;27838;43.858;25.974;2022-09-17T06:40:53;99737.81;;;24.95;51.39
42169;BME280;27838;43.858;25.974;2022-09-17T06:43:20;99757.31;;;24.95;51.52
42169;BME280;27838;43.858;25.974;2022-09-17T06:45:57;99758.94;;;24.98;51.50
42169;BME280;27838;43.858;25.974;2022-09-17T06:48:24;99761.59;;;24.98;51.46
42169;BME280;27838;43.858;25.974;2022-09-17T06:50:52;99775.53;;;25.01;51.79
42169;BME280;27838;43.858;25.974;2022-09-17T06:53:22;99773.81;;;25.00;51.76
42169;BME280;27838;43.858;25.974;2022-09-17T06:55:50;99770.09;;;25.03;51.75
42169;BME280;27838;43.858;25.974;2022-09-17T06:58:16;99770.94;;;25.03;51.83
42169;BME280;27838;43.858;25.974;2022-09-17T07:00:43;99766.09;;;25.09;51.84
42169;BME280;27838;43.858;25.974;2022-09-17T07:03:09;99766.09;;;25.09;51.79
42169;BME280;27838;43.858;25.974;2022-09-17T07:05:36;99758.84;;;25.11;51.92
42169;BME280;27838;43.858;25.974;2022-09-17T07:08:03;99758.59;;;25.14;51.97
42169;BME280;27838;43.858;25.974;2022-09-17T07:10:30;99754.97;;;25.15;52.04
42169;BME280;27838;43.858;25.974;2022-09-17T07:12:57;99761.78;;;25.19;51.53
42169;BME280;27838;43.858;25.974;2022-09-17T07:15:24;99769.53;;;25.22;51.69
42169;BME280;27838;43.858;25.974;2022-09-17T07:17:50;99770.28;;;25.24;51.57
42169;BME280;27838;43.858;25.974;2022-09-17T07:20:17;99766.69;;;25.25;51.27
42169;BME280;27838;43.858;25.974;2022-09-17T07:22:44;99770.91;;;25.28;51.24
42169;BME280;27838;43.858;25.974;2022-09-17T07:25:11;99768.88;;;25.31;51.41
42169;BME280;27838;43.858;25.974;2022-09-17T07:27:37;99761.47;;;25.35;50.97
42169;BME280;27838;43.858;25.974;2022-09-17T07:30:04;99762.31;;;25.35;51.11
42169;BME280;27838;43.858;25.974;2022-09-17T07:32:31;99771.91;;;25.38;51.27
42169;BME280;27838;43.858;25.974;2022-09-17T07:34:57;99782.34;;;25.41;51.25
42169;BME280;27838;43.858;25.974;2022-09-17T07:37:24;99786.34;;;25.47;51.21
42169;BME280;27838;43.858;25.974;2022-09-17T07:39:50;99783.47;;;25.50;52.11
42169;BME280;27838;43.858;25.974;2022-09-17T07:42:17;99770.34;;;25.47;52.62
42169;BME280;27838;43.858;25.974;2022-09-17T07:44:43;99766.13;;;25.55;52.44
42169;BME280;27838;43.858;25.974;2022-09-17T07:47:10;99756.28;;;25.56;52.48
42169;BME280;27838;43.858;25.974;2022-09-17T07:49:37;99745.50;;;25.57;52.18
42169;BME280;27838;43.858;25.974;2022-09-17T07:52:04;99737.38;;;25.59;51.88
42169;BME280;27838;43.858;25.974;2022-09-17T07:54:33;99733.75;;;25.60;52.02
42169;BME280;27838;43.858;25.974;2022-09-17T07:57:01;99742.22;;;25.65;51.97
42169;BME280;27838;43.858;25.974;2022-09-17T07:59:28;99740.03;;;25.70;51.85
42169;BME280;27838;43.858;25.974;2022-09-17T08:01:54;99755.59;;;25.76;51.69
42169;BME280;27838;43.858;25.974;2022-09-17T08:04:21;99756.31;;;25.78;51.16
42169;BME280;27838;43.858;25.974;2022-09-17T08:06:47;99751.22;;;25.87;51.26
42169;BME280;27838;43.858;25.974;2022-09-17T08:09:15;99763.47;;;25.89;51.78
42169;BME280;27838;43.858;25.974;2022-09-17T08:11:43;99773.81;;;25.94;51.84
42169;BME280;27838;43.858;25.974;2022-09-17T08:14:12;99776.97;;;25.99;51.95
42169;BME280;27838;43.858;25.974;2022-09-17T08:16:39;99776.97;;;25.99;52.78
42169;BME280;27838;43.858;25.974;2022-09-17T08:19:06;99761.50;;;25.91;53.18
42169;BME280;27838;43.858;25.974;2022-09-17T08:21:35;99775.38;;;25.96;53.34
42169;BME280;27838;43.858;25.974;2022-09-17T08:24:01;99774.41;;;25.97;52.99
42169;BME280;27838;43.858;25.974;2022-09-17T08:26:28;99772.84;;;25.95;53.40
42169;BME280;27838;43.858;25.974;2022-09-17T08:28:54;99763.84;;;25.96;53.45
42169;BME280;27838;43.858;25.974;2022-09-17T08:31:25;99755.59;;;25.99;53.47
42169;BME280;27838;43.858;25.974;2022-09-17T08:33:52;99748.19;;;26.03;53.47
42169;BME280;27838;43.858;25.974;2022-09-17T08:36:19;99740.78;;;26.06;53.15
42169;BME280;27838;43.858;25.974;2022-09-17T08:38:46;99750.72;;;26.15;53.29
42169;BME280;27838;43.858;25.974;2022-09-17T08:58:09;99748.84;;;26.82;48.76
42169;BME280;27838;43.858;25.974;2022-09-17T09:00:52;99744.44;;;26.92;49.08
42169;BME280;27838;43.858;25.974;2022-09-17T09:04:30;99738.19;;;27.03;49.30
42169;BME280;27838;43.858;25.974;2022-09-17T09:06:42;99740.47;;;27.08;48.84
42169;BME280;27838;43.858;25.974;2022-09-17T09:09:16;99754.31;;;27.13;48.05
42169;BME280;27838;43.858;25.974;2022-09-17T09:11:45;99763.75;;;27.17;48.03
42169;BME280;27838;43.858;25.974;2022-09-17T09:14:22;99769.09;;;27.17;48.92
42169;BME280;27838;43.858;25.974;2022-09-17T09:16:50;99771.06;;;27.15;48.46
42169;BME280;27838;43.858;25.974;2022-09-17T09:19:25;99751.63;;;27.13;48.48
42169;BME280;27838;43.858;25.974;2022-09-17T09:22:03;99761.22;;;27.16;48.46
42169;BME280;27838;43.858;25.974;2022-09-17T09:24:41;99761.72;;;27.09;48.81
42169;BME280;27838;43.858;25.974;2022-09-17T09:27:21;99780.06;;;27.14;48.31
42169;BME280;27838;43.858;25.974;2022-09-17T09:30:07;99773.47;;;27.18;48.59
42169;BME280;27838;43.858;25.974;2022-09-17T09:35:24;99774.44;;;27.28;47.28
42169;BME280;27838;43.858;25.974;2022-09-17T09:38:02;99768.94;;;27.30;47.38
42169;BME280;27838;43.858;25.974;2022-09-17T09:43:14;99753.94;;;27.39;47.47
42169;BME280;27838;43.858;25.974;2022-09-17T09:59:12;99766.78;;;27.45;46.75
42169;BME280;27838;43.858;25.974;2022-09-17T10:01:40;99765.09;;;27.44;46.37
42169;BME280;27838;43.858;25.974;2022-09-17T10:04:23;99762.88;;;27.49;46.43
42169;BME280;27838;43.858;25.974;2022-09-17T10:06:59;99752.75;;;27.53;46.81
42169;BME280;27838;43.858;25.974;2022-09-17T10:09:28;99750.66;;;27.56;46.68
42169;BME280;27838;43.858;25.974;2022-09-17T10:12:04;99751.38;;;27.58;46.44
42169;BME280;27838;43.858;25.974;2022-09-17T10:14:38;99751.56;;;27.66;46.30
42169;BME280;27838;43.858;25.974;2022-09-17T10:19:36;99737.88;;;27.69;46.30
42169;BME280;27838;43.858;25.974;2022-09-17T10:22:28;99742.59;;;27.77;45.97
42169;BME280;27838;43.858;25.974;2022-09-17T10:24:56;99746.09;;;27.78;44.45
42169;BME280;27838;43.858;25.974;2022-09-17T10:27:25;99763.16;;;27.77;43.93
42169;BME280;27838;43.858;25.974;2022-09-17T10:32:34;99735.38;;;27.78;43.10
42169;BME280;27838;43.858;25.974;2022-09-17T10:37:44;99754.31;;;27.86;42.44
42169;BME280;27838;43.858;25.974;2022-09-17T10:42:48;99754.19;;;27.87;42.67
42169;BME280;27838;43.858;25.974;2022-09-17T10:45:42;99763.31;;;27.85;42.31
42169;BME280;27838;43.858;25.974;2022-09-17T10:48:17;99763.19;;;27.86;42.68
42169;BME280;27838;43.858;25.974;2022-09-17T10:50:52;99758.66;;;27.87;43.16
42169;BME280;27838;43.858;25.974;2022-09-17T10:53:20;99767.56;;;27.87;42.96
42169;BME280;27838;43.858;25.974;2022-09-17T10:56:19;99764.19;;;27.85;43.09
42169;BME280;27838;43.858;25.974;2022-09-17T11:07:37;99771.03;;;27.99;43.77
42169;BME280;27838;43.858;25.974;2022-09-17T11:10:19;99781.75;;;27.99;43.81
42169;BME280;27838;43.858;25.974;2022-09-17T11:15:37;99760.31;;;27.99;43.33
42169;BME280;27838;43.858;25.974;2022-09-17T11:20:57;99774.81;;;27.97;43.38
42169;BME280;27838;43.858;25.974;2022-09-17T11:26:28;99782.50;;;27.90;43.40
42169;BME280;27838;43.858;25.974;2022-09-17T11:29:31;99800.22;;;27.81;43.29
42169;BME280;27838;43.858;25.974;2022-09-17T11:35:40;99802.94;;;27.60;43.07
42169;BME280;27838;43.858;25.974;2022-09-17T11:38:18;99821.34;;;27.54;43.61
42169;BME280;27838;43.858;25.974;2022-09-17T11:40:50;99847.78;;;27.47;43.75
42169;BME280;27838;43.858;25.974;2022-09-17T11:46:48;99862.47;;;27.31;43.36
42169;BME280;27838;43.858;25.974;2022-09-17T11:50:13;99867.09;;;27.29;43.57
42169;BME280;27838;43.858;25.974;2022-09-17T11:52:31;99868.81;;;27.19;43.46
42169;BME280;27838;43.858;25.974;2022-09-17T11:55:25;99870.66;;;27.07;43.96
42169;BME280;27838;43.858;25.974;2022-09-17T11:58:50;99861.94;;;27.05;44.14
42169;BME280;27838;43.858;25.974;2022-09-17T12:01:16;99863.13;;;27.12;43.98
42169;BME280;27838;43.858;25.974;2022-09-17T12:03:52;99866.88;;;27.10;43.95
42169;BME280;27838;43.858;25.974;2022-09-17T12:06:32;99875.84;;;27.20;44.07
42169;BME280;27838;43.858;25.974;2022-09-17T12:09:08;99881.91;;;27.22;43.82
42169;BME280;27838;43.858;25.974;2022-09-17T12:11:56;99881.44;;;27.17;43.93
42169;BME280;27838;43.858;25.974;2022-09-17T12:17:11;99870.91;;;27.04;44.31
42169;BME280;27838;43.858;25.974;2022-09-17T12:19:44;99875.44;;;27.04;45.09
42169;BME280;27838;43.858;25.974;2022-09-17T12:22:24;99865.56;;;27.04;46.07
42169;BME280;27838;43.858;25.974;2022-09-17T12:24:52;99850.69;;;27.11;46.15
42169;BME280;27838;43.858;25.974;2022-09-17T12:27:40;99843.28;;;27.15;46.70
42169;BME280;27838;43.858;25.974;2022-09-17T12:30:13;99810.34;;;27.15;46.48
42169;BME280;27838;43.858;25.974;2022-09-17T12:33:15;99805.13;;;27.13;46.78
42169;BME280;27838;43.858;25.974;2022-09-17T12:41:07;99809.53;;;27.03;46.95
42169;BME280;27838;43.858;25.974;2022-09-17T12:51:56;99845.59;;;26.76;48.74
42169;BME280;27838;43.858;25.974;2022-09-17T12:54:38;99831.75;;;26.71;49.32
42169;BME280;27838;43.858;25.974;2022-09-17T12:57:25;99821.19;;;26.69;49.81
42169;BME280;27838;43.858;25.974;2022-09-17T13:11:33;99767.63;;;26.71;50.20
42169;BME280;27838;43.858;25.974;2022-09-17T13:16:55;99749.88;;;26.70;49.46
42169;BME280;27838;43.858;25.974;2022-09-17T13:19:42;99752.75;;;26.78;49.36
42169;BME280;27838;43.858;25.974;2022-09-17T13:22:17;99750.69;;;26.82;49.63
42169;BME280;27838;43.858;25.974;2022-09-17T13:24:46;99729.28;;;26.82;48.97
42169;BME280;27838;43.858;25.974;2022-09-17T13:27:24;99733.81;;;26.81;48.96
42169;BME280;27838;43.858;25.974;2022-09-17T13:37:44;99702.03;;;26.55;49.61
42169;BME280;27838;43.858;25.974;2022-09-17T13:40:29;99696.81;;;26.54;49.53
42169;BME280;27838;43.858;25.974;2022-09-17T13:43:17;99685.19;;;26.55;49.75
42169;BME280;27838;43.858;25.974;2022-09-17T13:48:33;99669.81;;;26.36;50.26
42169;BME280;27838;43.858;25.974;2022-09-17T13:52:02;99673.00;;;26.30;50.40
42169;BME280;27838;43.858;25.974;2022-09-17T13:54:10;99659.50;;;26.31;50.54
42169;BME280;27838;43.858;25.974;2022-09-17T13:56:46;99657.00;;;26.30;50.66
42169;BME280;27838;43.858;25.974;2022-09-17T13:59:19;99660.41;;;26.21;50.43
42169;BME280;27838;43.858;25.974;2022-09-17T14:02:00;99645.25;;;26.10;50.54
42169;BME280;27838;43.858;25.974;2022-09-17T14:15:34;99601.59;;;25.99;50.79
42169;BME280;27838;43.858;25.974;2022-09-17T14:20:50;99589.84;;;26.02;51.42
42169;BME280;27838;43.858;25.974;2022-09-17T14:23:19;99568.78;;;26.09;51.13
42169;BME280;27838;43.858;25.974;2022-09-17T14:25:53;99558.19;;;26.18;51.52
42169;BME280;27838;43.858;25.974;2022-09-17T14:31:00;99554.34;;;26.11;50.86
42169;BME280;27838;43.858;25.974;2022-09-17T14:33:30;99550.63;;;26.03;51.15
42169;BME280;27838;43.858;25.974;2022-09-17T14:36:01;99549.91;;;26.00;51.03
42169;BME280;27838;43.858;25.974;2022-09-17T14:38:40;99558.06;;;25.99;50.90
42169;BME280;27838;43.858;25.974;2022-09-17T14:43:54;99594.97;;;25.94;51.55
42169;BME280;27838;43.858;25.974;2022-09-17T14:46:26;99602.97;;;25.94;51.45
42169;BME280;27838;43.858;25.974;2022-09-17T14:48:55;99606.34;;;25.96;51.37
42169;BME280;27838;43.858;25.974;2022-09-17T14:51:39;99608.41;;;25.92;51.63
42169;BME280;27838;43.858;25.974;2022-09-17T14:54:20;99609.22;;;25.93;51.83
42169;BME280;27838;43.858;25.974;2022-09-17T14:56:59;99615.34;;;25.95;50.62
42169;BME280;27838;43.858;25.974;2022-09-17T15:05:01;99633.88;;;25.96;50.53
42169;BME280;27838;43.858;25.974;2022-09-17T15:07:29;99640.09;;;25.97;50.32
42169;BME280;27838;43.858;25.974;2022-09-17T15:10:13;99642.84;;;25.84;50.33
42169;BME280;27838;43.858;25.974;2022-09-17T15:12:42;99656.19;;;25.84;50.74
42169;BME280;27838;43.858;25.974;2022-09-17T15:15:17;99662.53;;;25.94;50.72
42169;BME280;27838;43.858;25.974;2022-09-17T15:17:44;99659.25;;;26.02;50.73
42169;BME280;27838;43.858;25.974;2022-09-17T15:20:16;99663.47;;;26.05;50.68
42169;BME280;27838;43.858;25.974;2022-09-17T15:22:48;99660.09;;;26.03;51.18
42169;BME280;27838;43.858;25.974;2022-09-17T15:25:20;99655.22;;;26.08;51.28
42169;BME280;27838;43.858;25.974;2022-09-17T15:27:48;99657.25;;;26.15;51.14
42169;BME280;27838;43.858;25.974;2022-09-17T15:30:20;99649.97;;;26.17;51.13
42169;BME280;27838;43.858;25.974;2022-09-17T15:35:34;99641.94;;;26.29;50.90
42169;BME280;27838;43.858;25.974;2022-09-17T15:38:02;99646.91;;;26.22;50.43
42169;BME280;27838;43.858;25.974;2022-09-17T15:40:31;99651.53;;;26.20;50.46
42169;BME280;27838;43.858;25.974;2022-09-17T15:45:54;99641.94;;;26.29;50.37
42169;BME280;27838;43.858;25.974;2022-09-17T15:50:59;99634.13;;;26.37;49.92
42169;BME280;27838;43.858;25.974;2022-09-17T15:53:28;99633.91;;;26.29;50.40
42169;BME280;27838;43.858;25.974;2022-09-17T16:08:48;99620.09;;;25.69;52.13
42169;BME280;27838;43.858;25.974;2022-09-17T16:11:16;99625.44;;;25.57;52.46
42169;BME280;27838;43.858;25.974;2022-09-17T16:13:45;99619.75;;;25.51;52.73
42169;BME280;27838;43.858;25.974;2022-09-17T16:16:18;99613.09;;;25.45;52.75
42169;BME280;27838;43.858;25.974;2022-09-17T16:18:45;99610.06;;;25.50;52.56
42169;BME280;27838;43.858;25.974;2022-09-17T16:21:13;99594.31;;;25.47;52.62
42169;BME280;27838;43.858;25.974;2022-09-17T16:23:41;99587.97;;;25.48;52.67
42169;BME280;27838;43.858;25.974;2022-09-17T16:26:19;99591.50;;;25.48;52.86